Time;durP1;ratioP1;P1;durP2;ratioP2;P2;SDS_P1;SDS_P2;PMS_P1;PMS_P2;Temp;Humidity;BMP_temperature;BMP_pressure;BME280_temperature;BME280_humidity;BME280_pressure;Samples;Min_cycle;Max_cycle;Signal;HPM_P1;HPM_P2
2023/10/03 00:00:22;;;;;;;5.33;2.43;;;13.60;99.80;;;12.40;92.86;100951.63;10189584;28;98540;-83
2023/10/03 00:05:33;;;;;;;4.43;2.17;;;13.60;99.90;;;12.36;93.26;100950.31;10171539;28;96722;-83
2023/10/03 00:10:40;;;;;;;4.25;2.15;;;13.50;99.90;;;12.28;93.57;100948.41;10216717;28;98520;-83
2023/10/03 00:15:45;;;;;;;4.07;1.83;;;13.50;99.90;;;12.23;94.22;100948.06;10221147;28;96885;-83
2023/10/03 00:20:48;;;;;;;4.80;2.27;;;13.40;99.90;;;12.16;94.68;100939.03;10202457;28;96743;-83
2023/10/03 00:25:56;;;;;;;5.17;1.80;;;13.30;99.90;;;12.14;94.75;100941.88;10198005;28;96665;-83
2023/10/03 00:31:00;;;;;;;7.33;1.80;;;13.40;99.90;;;12.10;95.18;100924.53;10209459;28;96665;-83
2023/10/03 00:36:04;;;;;;;6.23;2.47;;;13.30;99.90;;;12.07;94.96;100916.03;10215586;28;97261;-83
2023/10/03 00:41:08;;;;;;;4.20;1.90;;;13.30;99.90;;;12.05;95.31;100925.03;10203585;28;96541;-83
2023/10/03 00:46:12;;;;;;;4.47;1.90;;;13.30;99.90;;;12.01;95.13;100907.69;10213259;28;96695;-83
2023/10/03 00:51:20;;;;;;;4.30;2.10;;;13.20;99.90;;;12.00;94.92;100915.84;10225756;28;97357;-84
2023/10/03 00:56:25;;;;;;;4.43;1.87;;;13.20;99.90;;;11.96;95.55;100910.00;10226155;28;96579;-83
2023/10/03 01:01:33;;;;;;;3.30;1.87;;;13.20;99.90;;;11.95;95.63;100911.00;10209394;28;96645;-83
2023/10/03 01:06:38;;;;;;;4.80;2.13;;;13.20;99.90;;;11.92;95.92;100903.31;10156424;28;99112;-83
2023/10/03 01:11:42;;;;;;;4.37;1.77;;;13.10;99.90;;;11.88;96.01;100888.66;10220898;28;97569;-84
2023/10/03 01:16:46;;;;;;;6.13;1.83;;;13.10;99.90;;;11.85;96.33;100890.78;10196717;28;96777;-84
2023/10/03 01:21:50;;;;;;;3.83;2.07;;;13.00;99.90;;;11.84;96.66;100897.97;10200887;28;97139;-84
2023/10/03 01:26:54;;;;;;;4.87;2.00;;;13.00;99.90;;;11.79;96.74;100893.06;10192519;28;98155;-83
2023/10/03 01:31:59;;;;;;;3.73;1.90;;;13.00;99.90;;;11.76;97.23;100888.06;10208539;28;96686;-84
2023/10/03 01:37:03;;;;;;;4.00;1.83;;;13.00;99.90;;;11.73;97.62;100896.38;10207376;28;96591;-84
2023/10/03 01:42:07;;;;;;;5.37;2.10;;;12.90;99.90;;;11.71;98.00;100887.72;10184144;28;96654;-83
2023/10/03 01:47:11;;;;;;;4.53;2.00;;;12.90;99.90;;;11.70;98.20;100880.72;10215445;28;97671;-83
2023/10/03 01:52:16;;;;;;;4.83;2.40;;;12.90;99.90;;;11.66;98.34;100881.19;10222712;28;96693;-83
2023/10/03 01:57:20;;;;;;;8.80;2.80;;;12.90;99.90;;;11.63;98.27;100870.84;10184454;28;96591;-84
2023/10/03 02:02:24;;;;;;;6.80;2.17;;;12.80;99.90;;;11.60;98.46;100874.66;10208177;28;96689;-84
2023/10/03 02:07:28;;;;;;;4.83;2.20;;;12.80;99.90;;;11.59;98.51;100864.19;10187986;28;96609;-84
2023/10/03 02:12:32;;;;;;;6.07;2.10;;;12.80;99.90;;;11.53;98.25;100861.16;10169054;28;96648;-84
2023/10/03 02:17:36;;;;;;;5.17;2.63;;;12.80;99.90;;;11.51;98.28;100860.50;10208152;28;97533;-83
2023/10/03 02:22:41;;;;;;;5.10;2.60;;;12.80;99.90;;;11.50;98.56;100863.28;10223630;28;96864;-84
2023/10/03 02:27:46;;;;;;;4.47;2.13;;;12.80;99.90;;;11.45;98.53;100860.25;10201458;28;96542;-84
2023/10/03 02:32:57;;;;;;;5.23;2.30;;;12.70;99.90;;;11.41;98.79;100866.91;10214529;28;96743;-84
2023/10/03 02:38:04;;;;;;;5.53;2.70;;;12.60;99.90;;;11.33;99.26;100859.69;10213959;28;96759;-84
2023/10/03 02:43:11;;;;;;;6.47;2.93;;;12.50;99.90;;;11.28;99.66;100867.31;10213501;28;96716;-84
2023/10/03 02:48:15;;;;;;;5.77;3.10;;;12.50;99.90;;;11.25;99.57;100854.31;10192733;28;96916;-84
2023/10/03 02:53:20;;;;;;;6.27;2.93;;;12.50;99.90;;;11.24;100.00;100842.03;10211206;28;97072;-83
2023/10/03 02:58:25;;;;;;;6.63;3.30;;;12.40;99.90;;;11.22;100.00;100844.84;10189674;28;96537;-83
2023/10/03 03:03:32;;;;;;;5.57;2.77;;;12.40;99.90;;;11.17;100.00;100844.47;10223247;28;96704;-84
2023/10/03 03:08:39;;;;;;;5.43;2.27;;;12.40;99.90;;;11.13;100.00;100840.44;10219265;28;96721;-83
2023/10/03 03:13:44;;;;;;;6.00;2.60;;;12.40;99.90;;;11.12;100.00;100844.09;10214256;28;96673;-83
2023/10/03 03:18:50;;;;;;;5.23;1.90;;;12.40;99.90;;;11.09;100.00;100832.91;10219781;28;96915;-84
2023/10/03 03:23:56;;;;;;;5.20;2.37;;;12.40;99.90;;;11.06;100.00;100835.91;10182165;28;96606;-83
2023/10/03 03:29:03;;;;;;;3.00;1.90;;;12.40;99.90;;;11.05;100.00;100835.06;10188565;28;96524;-83
2023/10/03 03:34:06;;;;;;;4.53;2.27;;;12.40;99.90;;;11.03;100.00;100833.53;10224573;28;97502;-83
2023/10/03 03:39:15;;;;;;;5.70;2.60;;;12.30;99.90;;;10.98;100.00;100836.69;10175995;28;97002;-83
2023/10/03 03:44:19;;;;;;;6.73;2.60;;;12.20;99.90;;;10.92;100.00;100830.16;10191855;28;96734;-83
2023/10/03 03:49:24;;;;;;;4.93;2.40;;;12.10;99.90;;;10.89;100.00;100819.81;10211425;28;97758;-83
2023/10/03 03:54:29;;;;;;;4.83;2.47;;;12.20;99.90;;;10.87;100.00;100813.00;10211730;28;96599;-83
2023/10/03 03:59:35;;;;;;;5.70;2.53;;;12.20;99.90;;;10.82;100.00;100820.59;10189937;28;96736;-83
2023/10/03 04:04:39;;;;;;;7.13;2.53;;;12.10;99.90;;;10.76;100.00;100814.06;10204005;28;98876;-83
2023/10/03 04:09:43;;;;;;;5.93;2.70;;;12.00;99.90;;;10.75;100.00;100814.25;10203407;28;96772;-83
2023/10/03 04:14:46;;;;;;;5.57;2.67;;;12.00;99.90;;;10.75;100.00;100820.38;10200950;28;96727;-84
2023/10/03 04:19:50;;;;;;;9.43;3.00;;;12.00;99.90;;;10.75;100.00;100815.06;10205085;28;96805;-83
2023/10/03 04:24:55;;;;;;;9.40;2.83;;;12.00;99.90;;;10.73;100.00;100819.69;10176258;28;98427;-83
2023/10/03 04:29:58;;;;;;;7.77;2.97;;;12.00;99.90;;;10.72;100.00;100812.72;10220875;28;96745;-83
2023/10/03 04:35:11;;;;;;;4.37;2.77;;;11.90;99.90;;;10.71;100.00;100821.69;10189778;28;97285;-84
2023/10/03 04:40:21;;;;;;;6.67;3.63;;;12.00;99.90;;;10.70;100.00;100815.53;10183798;28;98665;-83
2023/10/03 04:45:26;;;;;;;5.63;3.13;;;12.00;99.90;;;10.70;100.00;100818.19;10199307;28;97148;-84
2023/10/03 04:50:31;;;;;;;7.03;3.20;;;11.90;99.90;;;10.74;100.00;100815.22;10175481;28;96644;-85
2023/10/03 04:55:35;;;;;;;15.30;4.60;;;12.00;99.90;;;10.70;100.00;100814.69;10201495;28;97255;-85
2023/10/03 05:00:39;;;;;;;12.60;4.77;;;12.00;99.90;;;10.70;100.00;100817.34;10205984;28;96754;-85
2023/10/03 05:05:44;;;;;;;15.33;5.33;;;12.00;99.90;;;10.70;100.00;100809.38;10215601;28;96642;-85
2023/10/03 05:10:48;;;;;;;14.37;5.13;;;11.90;99.90;;;10.72;100.00;100813.53;10208179;28;97554;-84
2023/10/03 05:15:53;;;;;;;14.07;4.73;;;12.00;99.90;;;10.76;100.00;100818.56;10200747;28;96646;-84
2023/10/03 05:20:57;;;;;;;12.93;5.60;;;12.00;99.90;;;10.80;100.00;100812.78;10207494;28;96691;-84
2023/10/03 05:26:02;;;;;;;13.27;4.70;;;12.10;99.90;;;10.84;100.00;100818.63;10207559;28;97797;-84
2023/10/03 05:31:12;;;;;;;14.03;5.10;;;12.10;99.90;;;10.89;100.00;100819.81;10220063;28;98095;-84
2023/10/03 05:36:18;;;;;;;13.33;4.60;;;12.20;99.90;;;10.98;100.00;100818.06;10193736;28;96656;-84
2023/10/03 05:41:23;;;;;;;7.00;3.77;;;12.30;99.90;;;11.07;100.00;100821.63;10206121;28;97393;-84
2023/10/03 05:46:28;;;;;;;8.73;3.60;;;12.30;99.90;;;11.17;100.00;100830.34;10221293;28;96878;-84
2023/10/03 05:51:33;;;;;;;6.10;2.40;;;12.50;99.90;;;11.30;100.00;100827.25;10190783;28;96638;-84
2023/10/03 05:56:37;;;;;;;4.57;2.60;;;12.60;99.90;;;11.41;100.00;100829.66;10203357;28;98864;-84
2023/10/03 06:01:42;;;;;;;4.33;2.70;;;12.70;99.90;;;11.57;100.00;100839.53;10211372;28;97562;-84
2023/10/03 06:06:46;;;;;;;7.87;2.60;;;12.80;99.90;;;11.71;100.00;100829.13;10199915;28;97606;-84
2023/10/03 06:11:49;;;;;;;6.53;2.47;;;13.00;99.90;;;11.92;100.00;100833.22;10211520;28;98182;-85
2023/10/03 06:16:53;;;;;;;6.07;2.30;;;13.20;99.90;;;12.14;100.00;100837.13;10213066;28;96742;-85
2023/10/03 06:21:57;;;;;;;5.03;2.63;;;13.40;99.90;;;12.40;100.00;100832.53;10212490;28;96518;-85
2023/10/03 06:27:02;;;;;;;3.57;2.10;;;13.60;99.90;;;12.63;100.00;100840.72;10216634;28;98631;-84
2023/10/03 06:32:07;;;;;;;4.20;2.07;;;13.90;99.90;;;12.84;100.00;100826.91;10181436;28;97090;-84
2023/10/03 06:37:10;;;;;;;4.13;2.00;;;14.10;99.90;;;13.10;100.00;100824.88;10210940;28;97916;-84
2023/10/03 06:42:14;;;;;;;6.20;2.63;;;14.40;99.90;;;13.37;100.00;100831.72;10197740;28;98823;-84
2023/10/03 06:47:23;;;;;;;3.08;1.55;;;14.60;99.90;;;13.64;100.00;100830.44;10230677;28;97612;-85
2023/10/03 06:52:28;;;;;;;3.15;1.63;;;14.90;99.90;;;13.89;96.74;100838.34;10206764;28;96859;-84
2023/10/03 06:57:32;;;;;;;4.50;1.70;;;15.20;99.90;;;14.13;93.33;100832.88;10207882;28;96898;-84
2023/10/03 07:02:36;;;;;;;5.10;1.70;;;15.40;99.90;;;14.35;90.91;100831.25;10230143;28;98215;-84
2023/10/03 07:07:40;;;;;;;4.40;1.60;;;15.70;99.90;;;14.58;88.16;100833.16;10222712;28;97437;-84
2023/10/03 07:12:44;;;;;;;4.60;1.65;;;15.90;99.90;;;14.84;87.37;100835.44;10227649;28;96561;-83
2023/10/03 07:17:48;;;;;;;4.13;1.73;;;16.10;99.90;;;15.07;85.64;100830.91;10225604;28;98639;-84
2023/10/03 07:22:52;;;;;;;8.43;2.47;;;16.40;99.90;;;15.30;83.45;100832.69;10227994;28;96797;-84
2023/10/03 07:27:56;;;;;;;4.95;2.50;;;16.60;99.90;;;15.53;83.64;100836.97;10188431;28;97220;-84
2023/10/03 07:33:00;;;;;;;8.85;2.03;;;16.80;99.90;;;15.78;81.93;100834.00;10180489;28;96655;-84
2023/10/03 07:38:04;;;;;;;4.38;1.90;;;17.10;99.50;;;16.00;79.84;100835.72;10189383;28;97449;-84
2023/10/03 07:43:12;;;;;;;5.28;1.80;;;17.30;98.90;;;16.25;77.78;100830.03;10187881;28;97324;-84
2023/10/03 07:48:16;;;;;;;7.18;2.22;;;17.60;98.40;;;16.53;77.36;100828.25;10220042;28;96630;-84
2023/10/03 07:53:19;;;;;;;4.88;1.98;;;17.70;97.50;;;16.78;73.95;100835.94;10201881;28;96812;-84
2023/10/03 07:58:23;;;;;;;7.03;2.33;;;17.90;96.70;;;17.04;73.94;100838.06;10188130;28;96738;-84
2023/10/03 08:03:28;;;;;;;3.97;2.10;;;18.20;96.80;;;17.26;73.05;100830.75;10188444;28;96647;-84
2023/10/03 08:08:33;;;;;;;5.93;2.47;;;18.40;96.10;;;17.39;69.25;100820.94;10211187;28;96725;-84
2023/10/03 08:13:39;;;;;;;6.95;3.25;;;18.60;95.40;;;17.45;69.56;100826.53;10183547;28;96662;-84
2023/10/03 08:18:46;;;;;;;6.47;2.58;;;18.70;94.80;;;17.66;69.92;100821.91;10171588;28;96964;-84
2023/10/03 08:23:51;;;;;;;5.80;2.70;;;18.90;94.70;;;17.84;68.71;100802.59;10156742;28;96585;-84
2023/10/03 08:29:04;;;;;;;6.10;2.63;;;19.10;94.30;;;18.12;68.22;100796.28;10185912;28;96516;-84
2023/10/03 08:34:10;;;;;;;6.03;2.97;;;19.40;93.70;;;18.29;66.62;100794.03;10204620;28;98480;-84
2023/10/03 08:39:14;;;;;;;6.70;2.88;;;19.50;93.30;;;18.52;65.84;100785.56;10209416;28;96607;-83
2023/10/03 08:44:20;;;;;;;5.28;2.42;;;19.80;92.70;;;18.62;66.07;100783.31;10208595;28;96626;-84
2023/10/03 08:49:38;;;;;;;6.88;2.72;;;19.90;92.60;;;18.76;65.17;100785.00;10186260;28;96575;-84
2023/10/03 08:54:42;;;;;;;9.68;3.30;;;20.10;92.30;;;18.95;65.82;100770.72;10196235;28;98388;-83
2023/10/03 08:59:46;;;;;;;7.88;3.30;;;20.30;92.30;;;19.26;64.46;100766.53;10193262;28;97230;-84
2023/10/03 09:04:51;;;;;;;8.20;2.85;;;20.60;91.90;;;19.56;63.38;100763.31;10200039;28;97432;-84
2023/10/03 09:10:08;;;;;;;4.18;2.50;;;20.80;91.40;;;19.80;61.83;100757.22;10184575;28;96567;-84
2023/10/03 09:15:17;;;;;;;6.38;2.40;;;21.20;91.10;;;20.27;62.18;100746.97;10205787;28;96496;-84
2023/10/03 09:20:22;;;;;;;6.13;2.80;;;21.70;90.80;;;20.87;60.20;100738.44;10207839;28;96505;-84
2023/10/03 09:25:28;;;;;;;5.10;3.00;;;22.30;90.00;;;21.46;58.05;100737.81;10206930;28;97349;-84
2023/10/03 09:30:37;;;;;;;4.40;2.30;;;22.80;88.60;;;22.02;55.73;100731.28;10226652;28;96767;-85
2023/10/03 09:36:02;;;;;;;7.20;2.80;;;23.20;86.50;;;22.39;54.29;100731.16;10181087;28;98151;-84
2023/10/03 09:41:06;;;;;;;6.68;2.55;;;23.40;85.10;;;22.42;53.53;100723.38;10214267;28;97088;-84
2023/10/03 09:46:12;;;;;;;9.80;2.83;;;23.50;83.40;;;22.44;53.46;100718.56;10232396;28;96576;-84
2023/10/03 09:51:18;;;;;;;7.75;3.00;;;23.50;83.20;;;22.54;52.86;100728.81;10215460;28;98632;-84
2023/10/03 09:56:22;;;;;;;7.68;3.15;;;23.70;82.60;;;22.62;52.99;100717.66;10216909;28;96720;-84
2023/10/03 10:01:30;;;;;;;5.28;2.40;;;23.80;81.50;;;22.83;53.28;100720.81;10199296;28;96887;-84
2023/10/03 10:06:54;;;;;;;6.22;2.25;;;24.00;81.60;;;22.94;52.62;100710.00;10213242;28;96542;-84
2023/10/03 10:12:21;;;;;;;4.38;2.42;;;24.10;80.80;;;23.21;52.42;100701.34;10226725;28;98121;-84
2023/10/03 10:17:40;;;;;;;6.40;2.30;;;24.30;80.20;;;23.49;51.79;100690.56;10231409;28;96560;-84
2023/10/03 10:23:12;;;;;;;5.77;2.73;;;24.60;80.40;;;23.73;50.77;100674.22;10229939;28;96480;-84
2023/10/03 10:28:34;;;;;;;7.65;2.75;;;24.90;78.70;;;24.02;50.88;100669.59;10217748;28;96511;-84
2023/10/03 10:33:38;;;;;;;5.82;2.42;;;25.30;78.50;;;24.32;49.55;100663.03;10226663;28;96747;-84
2023/10/03 10:38:52;;;;;;;4.40;2.10;;;25.70;77.10;;;24.68;47.66;100645.41;10211627;28;97364;-84
2023/10/03 10:44:13;;;;;;;3.65;1.60;;;26.10;75.50;;;25.20;47.70;100642.31;10223057;28;96731;-84
2023/10/03 10:49:35;;;;;;;4.72;1.90;;;26.80;75.00;;;25.66;44.76;100643.63;10222232;28;96726;-84
2023/10/03 10:54:43;;;;;;;3.25;1.52;;;27.20;69.70;;;25.83;43.84;100619.84;10216389;28;96753;-84
2023/10/03 10:59:47;;;;;;;5.07;2.13;;;27.30;69.60;;;26.11;43.35;100626.09;10228038;28;97227;-84
2023/10/03 11:04:58;;;;;;;5.07;1.92;;;27.60;68.90;;;26.38;43.07;100607.75;10186717;28;98122;-84
2023/10/03 11:10:12;;;;;;;3.88;1.85;;;27.90;68.80;;;26.67;42.60;100604.69;10176555;28;96745;-84
2023/10/03 11:15:37;;;;;;;3.33;1.70;;;28.50;67.80;;;26.91;41.58;100605.88;10174321;28;97040;-85
2023/10/03 11:20:41;;;;;;;3.55;1.88;;;28.90;65.10;;;27.28;40.52;100602.22;10173905;28;96845;-85
2023/10/03 11:25:58;;;;;;;4.85;1.85;;;29.40;63.90;;;27.78;39.58;100592.53;10220350;28;96519;-84
2023/10/03 11:31:09;;;;;;;3.55;1.67;;;29.90;62.30;;;28.16;38.45;100587.59;10239678;28;96583;-84
2023/10/03 11:36:14;;;;;;;2.42;1.50;;;30.20;60.40;;;28.51;37.74;100578.53;10203554;28;97572;-85
2023/10/03 11:41:34;;;;;;;3.67;1.70;;;30.40;60.20;;;29.02;37.11;100573.69;10199027;28;97065;-85
2023/10/03 11:46:39;;;;;;;4.90;1.75;;;30.70;59.40;;;29.22;35.94;100566.50;10233087;28;96585;-85
2023/10/03 11:51:44;;;;;;;4.03;1.55;;;30.90;58.60;;;29.54;35.75;100550.41;10223616;28;97537;-85
2023/10/03 11:56:48;;;;;;;2.80;1.13;;;30.90;58.50;;;29.68;34.71;100541.53;10227662;28;96640;-85
2023/10/03 12:01:56;;;;;;;4.57;1.38;;;30.90;57.70;;;29.53;35.25;100537.81;10217666;28;96837;-84
2023/10/03 12:07:01;;;;;;;2.15;1.23;;;30.60;57.90;;;29.15;34.72;100535.84;10191024;28;96744;-84
2023/10/03 12:12:05;;;;;;;2.97;1.42;;;30.10;56.80;;;28.37;35.95;100539.19;10179613;28;96607;-84
2023/10/03 12:17:11;;;;;;;2.75;1.40;;;29.30;57.10;;;27.43;37.10;100535.97;10225425;28;96942;-84
2023/10/03 12:22:15;;;;;;;4.45;1.30;;;28.50;57.90;;;26.71;38.85;100534.94;10202495;28;96651;-84
2023/10/03 12:27:18;;;;;;;2.03;0.93;;;27.90;58.90;;;26.18;39.44;100527.81;10200127;28;96709;-84
2023/10/03 12:32:23;;;;;;;4.63;1.55;;;27.30;59.70;;;25.88;40.59;100524.63;10211446;28;96738;-84
2023/10/03 12:37:26;;;;;;;2.38;0.80;;;27.00;60.70;;;25.62;41.26;100520.03;10208405;28;97587;-83
2023/10/03 12:42:31;;;;;;;3.90;1.50;;;26.70;61.10;;;25.34;41.63;100512.97;10181665;28;96711;-84
2023/10/03 12:47:35;;;;;;;6.00;1.20;;;26.40;61.50;;;25.20;42.44;100509.06;10179087;28;98157;-84
2023/10/03 12:52:42;;;;;;;2.92;0.98;;;26.30;62.10;;;25.09;42.91;100497.25;10247513;28;97589;-84
2023/10/03 12:57:48;;;;;;;3.03;1.30;;;26.20;62.60;;;25.09;42.46;100489.09;10211267;28;96723;-84
2023/10/03 13:02:54;;;;;;;3.00;0.93;;;26.10;62.80;;;25.05;42.40;100487.94;10201885;28;97177;-84
2023/10/03 13:07:58;;;;;;;2.78;1.30;;;26.10;62.70;;;24.97;42.61;100489.22;10193884;28;96741;-84
2023/10/03 13:13:04;;;;;;;3.63;1.15;;;25.90;62.70;;;24.90;43.16;100480.44;10180648;28;96718;-84
2023/10/03 13:18:08;;;;;;;2.15;1.00;;;25.90;62.90;;;24.85;42.94;100477.66;10170081;28;98802;-84
2023/10/03 13:23:12;;;;;;;2.75;1.20;;;25.80;63.20;;;24.80;43.28;100467.56;10138353;28;97270;-84
2023/10/03 13:28:16;;;;;;;3.85;1.50;;;25.80;63.60;;;24.79;43.50;100463.19;10169653;28;96664;-84
2023/10/03 13:33:19;;;;;;;2.45;1.23;;;25.80;63.60;;;24.78;42.92;100456.13;10118087;28;96813;-84
2023/10/03 13:38:23;;;;;;;2.95;1.70;;;25.80;63.50;;;24.73;43.19;100447.91;10149404;28;96608;-84
2023/10/03 13:43:27;;;;;;;4.55;2.08;;;25.80;63.60;;;24.66;43.10;100444.56;10176276;28;96775;-84
2023/10/03 13:48:31;;;;;;;3.70;1.50;;;25.70;63.60;;;24.63;43.18;100441.53;10172416;28;96999;-84
2023/10/03 13:53:35;;;;;;;5.20;2.13;;;25.60;63.40;;;24.61;43.25;100440.97;10176589;28;96679;-84
2023/10/03 13:58:38;;;;;;;8.07;2.00;;;25.60;63.70;;;24.58;43.63;100438.75;10169096;28;96800;-85
2023/10/03 14:03:43;;;;;;;2.75;1.67;;;25.60;63.70;;;24.56;43.84;100433.59;10128730;28;96616;-84
2023/10/03 14:08:48;;;;;;;6.40;2.30;;;25.50;63.80;;;24.56;43.21;100433.59;10176422;28;96596;-84
2023/10/03 14:13:55;;;;;;;5.40;2.08;;;25.50;63.70;;;24.58;44.03;100436.03;10218702;28;96649;-84
2023/10/03 14:18:59;;;;;;;3.22;1.30;;;25.50;64.10;;;24.56;44.53;100428.97;10218004;28;96653;-83
2023/10/03 14:24:03;;;;;;;3.25;1.17;;;25.50;64.30;;;24.53;44.62;100420.53;10207042;28;98170;-86
2023/10/03 14:29:07;;;;;;;2.70;1.10;;;25.60;64.40;;;24.51;44.15;100417.22;10214285;28;97646;-84
2023/10/03 14:34:10;;;;;;;4.47;1.10;;;25.50;64.30;;;24.47;43.95;100419.66;10212442;28;96629;-84
2023/10/03 14:39:24;;;;;;;3.28;1.02;;;25.50;64.20;;;24.46;44.39;100423.41;10199719;28;96887;-84
2023/10/03 14:44:28;;;;;;;2.05;1.05;;;25.50;64.30;;;24.38;43.99;100415.72;10225376;28;96806;-84
2023/10/03 14:49:32;;;;;;;2.35;1.13;;;25.40;64.20;;;24.36;44.69;100409.75;10259472;28;96662;-84
2023/10/03 14:54:36;;;;;;;2.45;0.93;;;25.40;64.50;;;24.33;44.54;100407.47;10210539;28;96626;-84
2023/10/03 14:59:39;;;;;;;2.20;1.10;;;25.40;64.50;;;24.34;45.38;100408.28;10223933;28;96709;-84
2023/10/03 15:04:43;;;;;;;3.22;1.17;;;25.40;64.90;;;24.32;45.41;100405.03;10198370;28;96605;-84
2023/10/03 15:09:51;;;;;;;2.85;1.00;;;25.40;65.10;;;24.25;45.00;100397.91;10211106;28;96600;-84
2023/10/03 15:14:56;;;;;;;3.72;0.90;;;25.40;64.90;;;24.19;44.62;100403.53;10217048;28;99083;-84
2023/10/03 15:20:00;;;;;;;2.00;1.00;;;25.30;64.80;;;24.15;45.37;100395.03;10192792;28;96669;-84
2023/10/03 15:25:05;;;;;;;3.67;1.15;;;25.20;65.00;;;24.08;45.71;100396.31;10217197;28;96657;-84
2023/10/03 15:30:12;;;;;;;4.07;1.20;;;25.20;65.20;;;23.96;45.45;100386.41;10205336;28;96553;-84
2023/10/03 15:35:16;;;;;;;1.70;0.98;;;25.10;65.30;;;23.85;45.89;100387.31;10184758;28;96632;-84
2023/10/03 15:40:20;;;;;;;3.35;1.17;;;25.00;65.50;;;23.69;46.43;100383.59;10230294;28;96982;-83
2023/10/03 15:45:24;;;;;;;2.85;1.17;;;24.80;65.80;;;23.54;47.16;100387.94;10209588;28;97639;-85
2023/10/03 15:50:28;;;;;;;2.55;1.23;;;24.70;66.40;;;23.30;48.82;100384.59;10208484;28;96567;-85
2023/10/03 15:55:32;;;;;;;5.45;1.38;;;24.40;67.20;;;23.03;49.75;100379.84;10223039;28;96871;-85
2023/10/03 16:00:37;;;;;;;4.88;1.70;;;24.10;68.20;;;22.71;51.02;100383.03;10209699;28;97838;-85
2023/10/03 16:05:41;;;;;;;4.45;1.23;;;23.80;69.20;;;22.36;51.92;100394.00;10208940;28;96692;-86
2023/10/03 16:10:45;;;;;;;2.78;1.25;;;23.40;70.20;;;22.01;53.50;100385.13;10195249;28;97503;-85
2023/10/03 16:15:49;;;;;;;3.38;1.13;;;23.00;71.20;;;21.64;54.91;100391.63;10204190;28;98875;-85
2023/10/03 16:20:53;;;;;;;3.47;1.35;;;22.60;72.10;;;21.31;56.03;100397.63;10219126;28;96941;-85
2023/10/03 16:25:57;;;;;;;4.30;1.95;;;22.30;73.10;;;20.95;57.71;100397.78;10179800;28;100358;-85
2023/10/03 16:31:01;;;;;;;3.95;1.83;;;21.90;74.30;;;20.61;59.42;100405.53;10178565;28;96732;-85
2023/10/03 16:36:05;;;;;;;4.22;1.67;;;21.60;75.40;;;20.30;60.32;100406.53;10194399;28;96589;-86
2023/10/03 16:41:09;;;;;;;2.85;1.27;;;21.20;76.40;;;20.04;60.77;100395.00;10213690;28;97754;-86
2023/10/03 16:46:15;;;;;;;3.13;1.65;;;21.00;76.90;;;19.77;62.98;100391.75;10173734;28;96838;-86
2023/10/03 16:51:19;;;;;;;5.38;1.52;;;20.80;78.10;;;19.51;64.04;100392.81;10201763;28;96558;-86
2023/10/03 16:56:23;;;;;;;3.20;1.52;;;20.40;79.20;;;19.27;64.66;100398.22;10185577;28;96817;-86
2023/10/03 17:01:27;;;;;;;3.42;1.42;;;20.20;79.60;;;19.04;66.22;100393.44;10184901;28;98544;-87
2023/10/03 17:06:31;;;;;;;6.30;1.92;;;20.00;80.70;;;18.86;66.73;100395.00;10206637;28;96756;-87
2023/10/03 17:11:35;;;;;;;7.90;1.98;;;19.80;81.30;;;18.71;67.07;100397.16;10209892;28;98395;-87
2023/10/03 17:16:39;;;;;;;5.00;2.05;;;19.70;81.80;;;18.57;67.82;100384.78;10205330;28;97514;-86
2023/10/03 17:21:43;;;;;;;3.80;2.10;;;19.50;82.10;;;18.45;68.94;100393.53;10183571;28;97505;-87
2023/10/03 17:26:47;;;;;;;6.28;2.10;;;19.40;82.90;;;18.33;69.07;100395.25;10201623;28;98072;-87
2023/10/03 17:31:51;;;;;;;5.20;1.55;;;19.30;83.30;;;18.23;69.16;100397.56;10185246;28;96872;-87
2023/10/03 17:36:54;;;;;;;6.65;1.73;;;19.20;83.40;;;18.12;69.91;100403.63;10192661;28;97709;-87
2023/10/03 17:42:05;;;;;;;3.22;1.50;;;19.20;84.00;;;17.97;71.06;100389.59;10153699;28;98087;-86
2023/10/03 17:47:12;;;;;;;5.68;1.75;;;19.00;84.60;;;17.83;72.06;100391.50;10204952;28;97528;-87
2023/10/03 17:52:15;;;;;;;3.75;1.15;;;18.80;85.30;;;17.68;71.93;100399.75;10204376;28;96841;-87
2023/10/03 17:57:19;;;;;;;2.80;1.20;;;18.70;85.70;;;17.54;71.70;100396.28;10190871;28;97209;-87
2023/10/03 18:02:23;;;;;;;2.58;1.38;;;18.60;85.90;;;17.44;72.10;100406.59;10199814;28;96892;-87
2023/10/03 18:07:27;;;;;;;3.25;1.38;;;18.50;86.30;;;17.30;73.39;100411.16;10208096;28;98511;-87
2023/10/03 18:12:31;;;;;;;3.63;1.38;;;18.30;87.70;;;17.13;74.33;100418.78;10210203;28;97036;-87
2023/10/03 18:17:36;;;;;;;5.20;1.75;;;18.20;87.90;;;17.02;74.78;100429.31;10191816;28;96834;-87
2023/10/03 18:22:42;;;;;;;6.32;1.40;;;18.10;88.20;;;16.94;75.34;100429.50;10202901;28;96680;-87
2023/10/03 18:27:46;;;;;;;5.40;1.70;;;18.00;88.80;;;16.81;76.03;100423.09;10215737;28;96658;-87
2023/10/03 18:32:50;;;;;;;6.90;2.22;;;17.90;89.10;;;16.71;75.71;100428.00;10210674;28;96604;-88
2023/10/03 18:37:53;;;;;;;3.75;2.00;;;17.80;89.40;;;16.59;77.10;100425.03;10180893;28;96669;-86
2023/10/03 18:42:57;;;;;;;4.32;2.00;;;17.60;90.00;;;16.49;77.21;100429.97;10212759;28;98467;-87
2023/10/03 18:48:01;;;;;;;5.57;1.80;;;17.50;90.30;;;16.40;78.03;100424.97;10189502;28;96615;-86
2023/10/03 18:53:05;;;;;;;3.22;1.70;;;17.40;90.50;;;16.32;77.55;100429.50;10213779;28;96637;-87
2023/10/03 18:58:09;;;;;;;33.58;16.92;;;17.40;90.60;;;16.21;79.05;100431.91;10188359;28;97704;-86
2023/10/03 19:03:13;;;;;;;9.70;4.88;;;17.30;90.90;;;16.12;79.57;100433.91;10197645;28;96764;-87
2023/10/03 19:08:17;;;;;;;10.10;3.08;;;17.20;91.10;;;16.04;80.49;100436.78;10189380;28;96753;-87
2023/10/03 19:13:24;;;;;;;7.55;2.50;;;17.10;91.50;;;15.99;80.24;100439.22;10189013;28;96735;-87
2023/10/03 19:18:27;;;;;;;5.18;2.10;;;17.10;91.40;;;15.94;80.21;100438.97;10205437;28;96691;-86
2023/10/03 19:23:43;;;;;;;4.93;2.05;;;17.00;91.60;;;15.87;80.32;100438.09;10217136;28;96716;-86
2023/10/03 19:28:47;;;;;;;6.20;2.42;;;17.00;91.80;;;15.79;81.46;100428.38;10209391;28;96905;-86
2023/10/03 19:33:51;;;;;;;5.20;2.05;;;16.90;92.10;;;15.72;81.65;100438.22;10213303;28;97583;-86
2023/10/03 19:38:55;;;;;;;4.95;1.98;;;16.80;92.30;;;15.65;82.48;100427.47;10192671;28;98063;-85
2023/10/03 19:44:00;;;;;;;4.35;2.05;;;16.70;92.60;;;15.61;82.70;100431.53;10179878;28;97596;-86
2023/10/03 19:49:03;;;;;;;4.22;1.92;;;16.70;92.80;;;15.57;82.83;100424.06;10179045;28;96746;-86
2023/10/03 19:54:07;;;;;;;4.70;1.90;;;16.60;92.90;;;15.52;82.63;100421.97;10202874;28;96516;-86
2023/10/03 19:59:12;;;;;;;4.60;1.77;;;16.60;93.00;;;15.50;82.57;100422.16;10196838;28;98095;-86
2023/10/03 20:04:15;;;;;;;3.33;1.75;;;16.60;93.10;;;15.46;83.05;100414.69;10222677;28;97666;-86
2023/10/03 20:09:19;;;;;;;5.10;2.05;;;16.50;93.30;;;15.42;82.99;100416.13;10228648;28;96673;-87
2023/10/03 20:14:24;;;;;;;4.20;2.03;;;16.50;93.40;;;15.38;83.57;100420.22;10171181;28;96791;-87
2023/10/03 20:19:28;;;;;;;4.85;2.30;;;16.50;93.60;;;15.32;84.21;100418.31;10178646;28;96651;-87
2023/10/03 20:24:31;;;;;;;3.47;1.60;;;16.40;94.00;;;15.23;84.31;100415.78;10223421;28;97522;-87
2023/10/03 20:29:35;;;;;;;5.38;1.77;;;16.30;94.00;;;15.19;85.16;100419.84;10201598;28;96833;-87
2023/10/03 20:34:39;;;;;;;5.68;2.00;;;16.30;94.30;;;15.12;86.22;100431.53;10186675;28;99061;-86
2023/10/03 20:39:44;;;;;;;7.45;1.67;;;16.20;94.50;;;15.05;86.36;100431.44;10198681;28;98859;-87
2023/10/03 20:44:48;;;;;;;4.22;2.08;;;16.20;94.80;;;15.01;86.37;100424.84;10200887;28;96734;-86
2023/10/03 20:49:52;;;;;;;5.35;2.15;;;16.20;94.70;;;14.97;86.59;100442.28;10189011;28;96702;-86
2023/10/03 20:54:56;;;;;;;5.25;1.85;;;16.10;94.80;;;14.96;87.49;100451.31;10202718;28;96666;-87